sensor_id;sensor_type;location;lat;lon;timestamp;temperature;humidity
6841;DHT22;3458;53.678;14.080;2022-09-02T00:02:13;14.20;99.90
6841;DHT22;3458;53.678;14.080;2022-09-02T00:04:41;14.20;99.90
6841;DHT22;3458;53.678;14.080;2022-09-02T00:07:06;14.10;99.90
6841;DHT22;3458;53.678;14.080;2022-09-02T00:09:32;14.10;99.90
6841;DHT22;3458;53.678;14.080;2022-09-02T00:11:58;14.00;99.90
6841;DHT22;3458;53.678;14.080;2022-09-02T00:14:31;14.00;99.90
6841;DHT22;3458;53.678;14.080;2022-09-02T00:16:57;13.90;99.90
6841;DHT22;3458;53.678;14.080;2022-09-02T00:19:27;13.90;99.90
6841;DHT22;3458;53.678;14.080;2022-09-02T00:21:54;13.90;99.90
6841;DHT22;3458;53.678;14.080;2022-09-02T00:24:21;13.80;99.90
6841;DHT22;3458;53.678;14.080;2022-09-02T00:26:47;13.80;99.90
6841;DHT22;3458;53.678;14.080;2022-09-02T00:29:12;13.80;99.90
6841;DHT22;3458;53.678;14.080;2022-09-02T00:31:41;13.70;99.90
6841;DHT22;3458;53.678;14.080;2022-09-02T00:34:07;13.80;99.90
6841;DHT22;3458;53.678;14.080;2022-09-02T00:36:34;13.70;99.90
6841;DHT22;3458;53.678;14.080;2022-09-02T00:38:59;13.70;99.90
6841;DHT22;3458;53.678;14.080;2022-09-02T00:41:27;13.70;99.90
6841;DHT22;3458;53.678;14.080;2022-09-02T00:44:05;13.70;99.90
6841;DHT22;3458;53.678;14.080;2022-09-02T00:46:32;13.70;99.90
6841;DHT22;3458;53.678;14.080;2022-09-02T00:51:40;13.70;99.90
6841;DHT22;3458;53.678;14.080;2022-09-02T00:54:08;13.60;99.90
6841;DHT22;3458;53.678;14.080;2022-09-02T00:56:36;13.60;99.90
6841;DHT22;3458;53.678;14.080;2022-09-02T00:59:02;13.60;99.90
6841;DHT22;3458;53.678;14.080;2022-09-02T01:01:28;13.60;99.90
6841;DHT22;3458;53.678;14.080;2022-09-02T01:03:54;13.50;99.90
6841;DHT22;3458;53.678;14.080;2022-09-02T01:06:22;13.50;99.90
6841;DHT22;3458;53.678;14.080;2022-09-02T01:08:53;13.50;99.90
6841;DHT22;3458;53.678;14.080;2022-09-02T01:11:21;13.40;99.90
6841;DHT22;3458;53.678;14.080;2022-09-02T01:13:47;13.40;99.90
6841;DHT22;3458;53.678;14.080;2022-09-02T01:16:22;13.40;99.90
6841;DHT22;3458;53.678;14.080;2022-09-02T01:18:50;13.40;99.90
6841;DHT22;3458;53.678;14.080;2022-09-02T01:21:17;13.40;99.90
6841;DHT22;3458;53.678;14.080;2022-09-02T01:23:43;13.30;99.90
6841;DHT22;3458;53.678;14.080;2022-09-02T01:26:10;13.30;99.90
6841;DHT22;3458;53.678;14.080;2022-09-02T01:28:36;13.30;99.90
6841;DHT22;3458;53.678;14.080;2022-09-02T01:31:02;13.40;99.90
6841;DHT22;3458;53.678;14.080;2022-09-02T01:33:28;13.30;99.90
6841;DHT22;3458;53.678;14.080;2022-09-02T01:35:54;13.30;99.90
6841;DHT22;3458;53.678;14.080;2022-09-02T01:38:21;13.30;99.90
6841;DHT22;3458;53.678;14.080;2022-09-02T01:41:14;13.20;99.90
6841;DHT22;3458;53.678;14.080;2022-09-02T01:43:39;13.20;99.90
6841;DHT22;3458;53.678;14.080;2022-09-02T01:46:05;13.20;99.90
6841;DHT22;3458;53.678;14.080;2022-09-02T01:48:30;13.20;99.90
6841;DHT22;3458;53.678;14.080;2022-09-02T01:50:59;13.10;99.90
6841;DHT22;3458;53.678;14.080;2022-09-02T01:53:26;13.10;99.90
6841;DHT22;3458;53.678;14.080;2022-09-02T01:55:52;13.10;99.90
6841;DHT22;3458;53.678;14.080;2022-09-02T01:58:17;13.10;99.90
6841;DHT22;3458;53.678;14.080;2022-09-02T02:00:44;13.00;99.90
6841;DHT22;3458;53.678;14.080;2022-09-02T02:03:10;13.00;99.90
6841;DHT22;3458;53.678;14.080;2022-09-02T02:05:35;13.00;99.90
6841;DHT22;3458;53.678;14.080;2022-09-02T02:08:01;13.00;99.90
6841;DHT22;3458;53.678;14.080;2022-09-02T02:10:27;13.00;99.90
6841;DHT22;3458;53.678;14.080;2022-09-02T02:12:52;12.90;99.90
6841;DHT22;3458;53.678;14.080;2022-09-02T02:15:19;12.90;99.90
6841;DHT22;3458;53.678;14.080;2022-09-02T02:17:45;12.90;99.90
6841;DHT22;3458;53.678;14.080;2022-09-02T02:20:12;12.80;99.90
6841;DHT22;3458;53.678;14.080;2022-09-02T02:22:41;12.80;99.90
6841;DHT22;3458;53.678;14.080;2022-09-02T02:25:08;12.70;99.90
6841;DHT22;3458;53.678;14.080;2022-09-02T02:27:34;12.70;99.90
6841;DHT22;3458;53.678;14.080;2022-09-02T02:30:00;12.70;99.90
6841;DHT22;3458;53.678;14.080;2022-09-02T02:32:26;12.70;99.90
6841;DHT22;3458;53.678;14.080;2022-09-02T02:34:52;12.70;99.90
6841;DHT22;3458;53.678;14.080;2022-09-02T02:37:19;12.70;99.90
6841;DHT22;3458;53.678;14.080;2022-09-02T02:39:45;12.60;99.90
6841;DHT22;3458;53.678;14.080;2022-09-02T02:42:11;12.70;99.90
6841;DHT22;3458;53.678;14.080;2022-09-02T02:44:40;12.60;99.90
6841;DHT22;3458;53.678;14.080;2022-09-02T02:47:07;12.60;99.90
6841;DHT22;3458;53.678;14.080;2022-09-02T02:49:38;12.60;99.90
6841;DHT22;3458;53.678;14.080;2022-09-02T02:52:04;12.60;99.90
6841;DHT22;3458;53.678;14.080;2022-09-02T02:54:30;12.60;99.90
6841;DHT22;3458;53.678;14.080;2022-09-02T02:56:55;12.60;99.90
6841;DHT22;3458;53.678;14.080;2022-09-02T02:59:21;12.60;99.90
6841;DHT22;3458;53.678;14.080;2022-09-02T03:01:47;12.50;99.90
6841;DHT22;3458;53.678;14.080;2022-09-02T03:04:12;12.50;99.90
6841;DHT22;3458;53.678;14.080;2022-09-02T03:06:38;12.50;99.90
6841;DHT22;3458;53.678;14.080;2022-09-02T03:09:04;12.50;99.90
6841;DHT22;3458;53.678;14.080;2022-09-02T03:11:29;12.50;99.90
6841;DHT22;3458;53.678;14.080;2022-09-02T03:13:55;12.40;99.90
6841;DHT22;3458;53.678;14.080;2022-09-02T03:16:21;12.40;99.90
6841;DHT22;3458;53.678;14.080;2022-09-02T03:18:47;12.40;99.90
6841;DHT22;3458;53.678;14.080;2022-09-02T03:21:14;12.40;99.90
6841;DHT22;3458;53.678;14.080;2022-09-02T03:23:40;12.30;99.90
6841;DHT22;3458;53.678;14.080;2022-09-02T03:26:11;12.30;99.90
6841;DHT22;3458;53.678;14.080;2022-09-02T03:28:38;12.30;99.90
6841;DHT22;3458;53.678;14.080;2022-09-02T03:31:04;12.30;99.90
6841;DHT22;3458;53.678;14.080;2022-09-02T03:33:30;12.30;99.90
6841;DHT22;3458;53.678;14.080;2022-09-02T03:35:56;12.30;99.90
6841;DHT22;3458;53.678;14.080;2022-09-02T03:38:22;12.20;99.90
6841;DHT22;3458;53.678;14.080;2022-09-02T03:40:47;12.20;99.90
6841;DHT22;3458;53.678;14.080;2022-09-02T03:43:13;12.20;99.90
6841;DHT22;3458;53.678;14.080;2022-09-02T03:45:39;12.10;99.90
6841;DHT22;3458;53.678;14.080;2022-09-02T03:48:06;12.10;99.90
6841;DHT22;3458;53.678;14.080;2022-09-02T03:50:35;12.00;99.90
6841;DHT22;3458;53.678;14.080;2022-09-02T03:53:02;11.90;99.90
6841;DHT22;3458;53.678;14.080;2022-09-02T03:55:28;11.80;99.90
6841;DHT22;3458;53.678;14.080;2022-09-02T03:57:53;11.80;99.90
6841;DHT22;3458;53.678;14.080;2022-09-02T04:00:21;11.80;99.90
6841;DHT22;3458;53.678;14.080;2022-09-02T04:02:49;11.80;99.90
6841;DHT22;3458;53.678;14.080;2022-09-02T04:05:15;11.80;99.90
6841;DHT22;3458;53.678;14.080;2022-09-02T04:07:41;11.80;99.90
6841;DHT22;3458;53.678;14.080;2022-09-02T04:10:07;11.80;99.90
6841;DHT22;3458;53.678;14.080;2022-09-02T04:12:36;11.90;99.90
6841;DHT22;3458;53.678;14.080;2022-09-02T04:15:04;11.90;99.90
6841;DHT22;3458;53.678;14.080;2022-09-02T04:17:30;11.90;99.90
6841;DHT22;3458;53.678;14.080;2022-09-02T04:19:55;11.90;99.90
6841;DHT22;3458;53.678;14.080;2022-09-02T04:22:21;11.90;99.90
6841;DHT22;3458;53.678;14.080;2022-09-02T04:24:47;11.80;99.90
6841;DHT22;3458;53.678;14.080;2022-09-02T04:27:12;11.80;99.90
6841;DHT22;3458;53.678;14.080;2022-09-02T04:29:38;11.80;99.90
6841;DHT22;3458;53.678;14.080;2022-09-02T04:32:03;11.80;99.90
6841;DHT22;3458;53.678;14.080;2022-09-02T04:34:29;11.80;99.90
6841;DHT22;3458;53.678;14.080;2022-09-02T04:36:55;11.70;99.90
6841;DHT22;3458;53.678;14.080;2022-09-02T04:39:20;11.70;99.90
6841;DHT22;3458;53.678;14.080;2022-09-02T04:41:46;11.70;99.90
6841;DHT22;3458;53.678;14.080;2022-09-02T04:44:12;11.70;99.90
6841;DHT22;3458;53.678;14.080;2022-09-02T04:46:37;11.70;99.90
6841;DHT22;3458;53.678;14.080;2022-09-02T04:49:03;11.70;99.90
6841;DHT22;3458;53.678;14.080;2022-09-02T04:51:29;11.70;99.90
6841;DHT22;3458;53.678;14.080;2022-09-02T04:53:55;11.70;99.90
6841;DHT22;3458;53.678;14.080;2022-09-02T04:56:26;11.70;99.90
6841;DHT22;3458;53.678;14.080;2022-09-02T04:58:52;11.70;99.90
6841;DHT22;3458;53.678;14.080;2022-09-02T05:01:21;11.70;99.90
6841;DHT22;3458;53.678;14.080;2022-09-02T05:03:47;11.70;99.90
6841;DHT22;3458;53.678;14.080;2022-09-02T05:06:17;11.70;99.90
6841;DHT22;3458;53.678;14.080;2022-09-02T05:08:43;11.70;99.90
6841;DHT22;3458;53.678;14.080;2022-09-02T05:11:11;11.70;99.90
6841;DHT22;3458;53.678;14.080;2022-09-02T05:13:38;11.70;99.90
6841;DHT22;3458;53.678;14.080;2022-09-02T05:16:04;11.70;99.90
6841;DHT22;3458;53.678;14.080;2022-09-02T05:18:30;11.80;99.90
6841;DHT22;3458;53.678;14.080;2022-09-02T05:20:56;11.80;99.90
6841;DHT22;3458;53.678;14.080;2022-09-02T05:23:21;11.80;99.90
6841;DHT22;3458;53.678;14.080;2022-09-02T05:25:47;11.80;99.90
6841;DHT22;3458;53.678;14.080;2022-09-02T05:28:12;11.80;99.90
6841;DHT22;3458;53.678;14.080;2022-09-02T05:30:39;11.80;99.90
6841;DHT22;3458;53.678;14.080;2022-09-02T05:33:06;11.80;99.90
6841;DHT22;3458;53.678;14.080;2022-09-02T05:35:32;11.90;99.90
6841;DHT22;3458;53.678;14.080;2022-09-02T05:37:57;11.90;99.90
6841;DHT22;3458;53.678;14.080;2022-09-02T05:40:23;11.90;99.90
6841;DHT22;3458;53.678;14.080;2022-09-02T05:42:49;12.00;99.90
6841;DHT22;3458;53.678;14.080;2022-09-02T05:45:14;12.00;99.90
6841;DHT22;3458;53.678;14.080;2022-09-02T05:47:40;12.10;99.90
6841;DHT22;3458;53.678;14.080;2022-09-02T05:50:07;12.00;99.90
6841;DHT22;3458;53.678;14.080;2022-09-02T05:52:32;12.10;99.90
6841;DHT22;3458;53.678;14.080;2022-09-02T05:54:58;12.10;99.90
6841;DHT22;3458;53.678;14.080;2022-09-02T05:57:24;12.00;99.90
6841;DHT22;3458;53.678;14.080;2022-09-02T05:59:50;12.10;99.90
6841;DHT22;3458;53.678;14.080;2022-09-02T06:02:21;12.10;99.90
6841;DHT22;3458;53.678;14.080;2022-09-02T06:04:48;12.20;99.90
6841;DHT22;3458;53.678;14.080;2022-09-02T06:07:17;12.30;99.90
6841;DHT22;3458;53.678;14.080;2022-09-02T06:09:42;12.30;99.90
6841;DHT22;3458;53.678;14.080;2022-09-02T06:12:10;12.40;99.90
6841;DHT22;3458;53.678;14.080;2022-09-02T06:14:36;12.40;99.90
6841;DHT22;3458;53.678;14.080;2022-09-02T06:17:04;12.50;99.90
6841;DHT22;3458;53.678;14.080;2022-09-02T06:19:30;12.60;99.90
6841;DHT22;3458;53.678;14.080;2022-09-02T06:21:58;12.60;99.90
6841;DHT22;3458;53.678;14.080;2022-09-02T06:24:25;12.70;99.90
6841;DHT22;3458;53.678;14.080;2022-09-02T06:26:51;12.80;99.90
6841;DHT22;3458;53.678;14.080;2022-09-02T06:29:18;12.80;99.90
6841;DHT22;3458;53.678;14.080;2022-09-02T06:31:45;12.90;99.90
6841;DHT22;3458;53.678;14.080;2022-09-02T06:34:12;13.00;99.90
6841;DHT22;3458;53.678;14.080;2022-09-02T06:36:39;13.00;99.90
6841;DHT22;3458;53.678;14.080;2022-09-02T06:39:05;13.00;99.90
6841;DHT22;3458;53.678;14.080;2022-09-02T06:41:32;13.10;99.90
6841;DHT22;3458;53.678;14.080;2022-09-02T06:44:01;13.20;99.90
6841;DHT22;3458;53.678;14.080;2022-09-02T06:46:32;13.20;99.90
6841;DHT22;3458;53.678;14.080;2022-09-02T06:48:58;13.20;99.90
6841;DHT22;3458;53.678;14.080;2022-09-02T06:51:27;13.30;99.90
6841;DHT22;3458;53.678;14.080;2022-09-02T06:53:53;13.30;99.90
6841;DHT22;3458;53.678;14.080;2022-09-02T06:56:18;13.40;99.90
6841;DHT22;3458;53.678;14.080;2022-09-02T06:58:44;13.40;99.90
6841;DHT22;3458;53.678;14.080;2022-09-02T07:01:17;13.50;99.90
6841;DHT22;3458;53.678;14.080;2022-09-02T07:03:42;13.50;99.90
6841;DHT22;3458;53.678;14.080;2022-09-02T07:06:26;13.60;99.90
6841;DHT22;3458;53.678;14.080;2022-09-02T07:08:52;13.70;99.90
6841;DHT22;3458;53.678;14.080;2022-09-02T07:11:23;13.70;99.90
6841;DHT22;3458;53.678;14.080;2022-09-02T07:13:49;13.80;99.90
6841;DHT22;3458;53.678;14.080;2022-09-02T07:16:15;13.80;99.90
6841;DHT22;3458;53.678;14.080;2022-09-02T07:18:41;13.90;99.90
6841;DHT22;3458;53.678;14.080;2022-09-02T07:21:09;13.90;99.90
6841;DHT22;3458;53.678;14.080;2022-09-02T07:23:35;13.90;99.90
6841;DHT22;3458;53.678;14.080;2022-09-02T07:26:00;14.00;99.90
6841;DHT22;3458;53.678;14.080;2022-09-02T07:28:26;14.00;99.90
6841;DHT22;3458;53.678;14.080;2022-09-02T07:30:52;14.10;99.90
6841;DHT22;3458;53.678;14.080;2022-09-02T07:33:20;14.10;99.90
6841;DHT22;3458;53.678;14.080;2022-09-02T07:35:46;14.20;99.90
6841;DHT22;3458;53.678;14.080;2022-09-02T07:38:12;14.20;99.90
6841;DHT22;3458;53.678;14.080;2022-09-02T07:40:39;14.30;99.90
6841;DHT22;3458;53.678;14.080;2022-09-02T07:43:07;14.40;99.90
6841;DHT22;3458;53.678;14.080;2022-09-02T07:45:34;14.40;99.90
6841;DHT22;3458;53.678;14.080;2022-09-02T07:48:01;14.50;99.90
6841;DHT22;3458;53.678;14.080;2022-09-02T07:50:27;14.50;99.90
6841;DHT22;3458;53.678;14.080;2022-09-02T07:52:55;14.60;99.90
6841;DHT22;3458;53.678;14.080;2022-09-02T07:55:22;14.70;99.90
6841;DHT22;3458;53.678;14.080;2022-09-02T07:57:49;14.70;99.90
6841;DHT22;3458;53.678;14.080;2022-09-02T08:00:16;14.80;99.90
6841;DHT22;3458;53.678;14.080;2022-09-02T08:02:42;14.90;99.90
6841;DHT22;3458;53.678;14.080;2022-09-02T08:05:08;14.90;99.90
6841;DHT22;3458;53.678;14.080;2022-09-02T08:07:34;15.00;99.90
6841;DHT22;3458;53.678;14.080;2022-09-02T08:10:00;15.10;99.90
6841;DHT22;3458;53.678;14.080;2022-09-02T08:12:26;15.10;99.90
6841;DHT22;3458;53.678;14.080;2022-09-02T08:14:53;15.20;99.90
6841;DHT22;3458;53.678;14.080;2022-09-02T08:17:20;15.30;99.90
6841;DHT22;3458;53.678;14.080;2022-09-02T08:19:45;15.40;99.90
6841;DHT22;3458;53.678;14.080;2022-09-02T08:22:11;15.50;99.90
6841;DHT22;3458;53.678;14.080;2022-09-02T08:24:36;15.50;99.90
6841;DHT22;3458;53.678;14.080;2022-09-02T08:27:02;15.60;99.90
6841;DHT22;3458;53.678;14.080;2022-09-02T08:29:27;15.70;99.90
6841;DHT22;3458;53.678;14.080;2022-09-02T08:31:53;15.80;99.90
6841;DHT22;3458;53.678;14.080;2022-09-02T08:34:18;15.90;99.90
6841;DHT22;3458;53.678;14.080;2022-09-02T08:36:44;15.90;99.90
6841;DHT22;3458;53.678;14.080;2022-09-02T08:39:10;16.00;99.90
6841;DHT22;3458;53.678;14.080;2022-09-02T08:42:03;16.10;99.90
6841;DHT22;3458;53.678;14.080;2022-09-02T08:44:33;16.20;99.90
6841;DHT22;3458;53.678;14.080;2022-09-02T08:47:02;16.20;99.90
6841;DHT22;3458;53.678;14.080;2022-09-02T08:49:35;16.30;99.90
6841;DHT22;3458;53.678;14.080;2022-09-02T08:52:04;16.40;99.90
6841;DHT22;3458;53.678;14.080;2022-09-02T08:54:51;16.50;99.90
6841;DHT22;3458;53.678;14.080;2022-09-02T08:57:19;16.60;99.90
6841;DHT22;3458;53.678;14.080;2022-09-02T08:59:47;16.70;99.90
6841;DHT22;3458;53.678;14.080;2022-09-02T09:02:53;16.80;99.90
6841;DHT22;3458;53.678;14.080;2022-09-02T09:05:44;16.90;99.90
6841;DHT22;3458;53.678;14.080;2022-09-02T09:08:37;16.90;99.90
6841;DHT22;3458;53.678;14.080;2022-09-02T09:11:19;17.00;99.90
6841;DHT22;3458;53.678;14.080;2022-09-02T09:14:15;17.10;99.90
6841;DHT22;3458;53.678;14.080;2022-09-02T09:19:51;17.30;99.90
6841;DHT22;3458;53.678;14.080;2022-09-02T09:22:32;17.50;99.90
6841;DHT22;3458;53.678;14.080;2022-09-02T09:25:00;17.50;99.90
6841;DHT22;3458;53.678;14.080;2022-09-02T09:27:26;17.60;99.90
6841;DHT22;3458;53.678;14.080;2022-09-02T09:29:52;17.80;99.90
6841;DHT22;3458;53.678;14.080;2022-09-02T09:32:25;17.80;99.90
6841;DHT22;3458;53.678;14.080;2022-09-02T09:37:28;18.00;99.90
6841;DHT22;3458;53.678;14.080;2022-09-02T09:39:54;18.10;99.90
6841;DHT22;3458;53.678;14.080;2022-09-02T09:42:30;18.10;99.90
6841;DHT22;3458;53.678;14.080;2022-09-02T09:44:56;18.10;99.90
6841;DHT22;3458;53.678;14.080;2022-09-02T09:47:23;18.30;99.90
6841;DHT22;3458;53.678;14.080;2022-09-02T09:50:16;18.30;99.90
6841;DHT22;3458;53.678;14.080;2022-09-02T09:52:42;18.30;99.90
6841;DHT22;3458;53.678;14.080;2022-09-02T09:55:12;18.40;99.90
6841;DHT22;3458;53.678;14.080;2022-09-02T09:57:43;18.60;99.90
6841;DHT22;3458;53.678;14.080;2022-09-02T10:00:26;18.70;99.90
6841;DHT22;3458;53.678;14.080;2022-09-02T10:02:58;18.80;99.90
6841;DHT22;3458;53.678;14.080;2022-09-02T10:05:32;18.90;99.90
6841;DHT22;3458;53.678;14.080;2022-09-02T10:07:59;18.90;99.90
6841;DHT22;3458;53.678;14.080;2022-09-02T10:10:28;18.90;99.90
6841;DHT22;3458;53.678;14.080;2022-09-02T10:12:57;19.00;99.90
6841;DHT22;3458;53.678;14.080;2022-09-02T10:15:33;19.20;99.90
6841;DHT22;3458;53.678;14.080;2022-09-02T10:18:33;19.30;99.90
6841;DHT22;3458;53.678;14.080;2022-09-02T10:21:08;19.50;99.90
6841;DHT22;3458;53.678;14.080;2022-09-02T10:23:46;19.60;99.90
6841;DHT22;3458;53.678;14.080;2022-09-02T10:26:29;19.70;99.00
6841;DHT22;3458;53.678;14.080;2022-09-02T10:34:49;20.10;97.40
6841;DHT22;3458;53.678;14.080;2022-09-02T10:37:21;20.30;96.20
6841;DHT22;3458;53.678;14.080;2022-09-02T10:40:11;20.40;93.30
6841;DHT22;3458;53.678;14.080;2022-09-02T10:43:04;20.50;92.50
6841;DHT22;3458;53.678;14.080;2022-09-02T10:45:46;20.60;91.10
6841;DHT22;3458;53.678;14.080;2022-09-02T10:51:00;20.80;92.40
6841;DHT22;3458;53.678;14.080;2022-09-02T10:53:32;20.90;90.70
6841;DHT22;3458;53.678;14.080;2022-09-02T10:56:06;21.10;87.70
6841;DHT22;3458;53.678;14.080;2022-09-02T11:01:40;21.30;85.90
6841;DHT22;3458;53.678;14.080;2022-09-02T11:06:54;21.40;84.60
6841;DHT22;3458;53.678;14.080;2022-09-02T11:09:40;21.40;87.70
6841;DHT22;3458;53.678;14.080;2022-09-02T11:12:17;21.60;89.00
6841;DHT22;3458;53.678;14.080;2022-09-02T11:15:09;21.80;88.20
6841;DHT22;3458;53.678;14.080;2022-09-02T11:23:28;21.80;82.40
6841;DHT22;3458;53.678;14.080;2022-09-02T11:26:20;21.80;80.80
6841;DHT22;3458;53.678;14.080;2022-09-02T11:28:58;22.00;82.20
6841;DHT22;3458;53.678;14.080;2022-09-02T11:37:05;21.50;76.80
6841;DHT22;3458;53.678;14.080;2022-09-02T11:39:41;21.40;77.00
6841;DHT22;3458;53.678;14.080;2022-09-02T11:42:37;21.60;77.70
6841;DHT22;3458;53.678;14.080;2022-09-02T11:53:23;21.60;74.00
6841;DHT22;3458;53.678;14.080;2022-09-02T11:55:55;21.60;73.10
6841;DHT22;3458;53.678;14.080;2022-09-02T11:58:30;22.00;72.90
6841;DHT22;3458;53.678;14.080;2022-09-02T12:03:29;22.50;69.30
6841;DHT22;3458;53.678;14.080;2022-09-02T12:06:25;22.30;69.10
6841;DHT22;3458;53.678;14.080;2022-09-02T12:11:38;22.80;69.10
6841;DHT22;3458;53.678;14.080;2022-09-02T12:17:05;24.00;65.60
6841;DHT22;3458;53.678;14.080;2022-09-02T12:24:50;23.90;63.70
6841;DHT22;3458;53.678;14.080;2022-09-02T12:27:36;23.50;65.80
6841;DHT22;3458;53.678;14.080;2022-09-02T12:30:05;23.20;68.30
6841;DHT22;3458;53.678;14.080;2022-09-02T12:35:48;22.70;68.20
6841;DHT22;3458;53.678;14.080;2022-09-02T12:43:27;23.40;67.40
6841;DHT22;3458;53.678;14.080;2022-09-02T12:46:02;23.40;67.40
6841;DHT22;3458;53.678;14.080;2022-09-02T12:48:38;23.20;67.80
6841;DHT22;3458;53.678;14.080;2022-09-02T12:51:04;23.00;67.10
6841;DHT22;3458;53.678;14.080;2022-09-02T12:53:40;22.70;66.70
6841;DHT22;3458;53.678;14.080;2022-09-02T12:56:18;22.50;68.10
6841;DHT22;3458;53.678;14.080;2022-09-02T12:58:47;22.40;69.10
6841;DHT22;3458;53.678;14.080;2022-09-02T13:03:51;23.10;70.00
6841;DHT22;3458;53.678;14.080;2022-09-02T13:06:29;23.40;68.10
6841;DHT22;3458;53.678;14.080;2022-09-02T13:09:30;24.10;68.40
6841;DHT22;3458;53.678;14.080;2022-09-02T13:20:44;25.00;63.80
6841;DHT22;3458;53.678;14.080;2022-09-02T13:26:24;24.70;61.20
6841;DHT22;3458;53.678;14.080;2022-09-02T13:29:39;24.20;62.50
6841;DHT22;3458;53.678;14.080;2022-09-02T13:34:42;23.50;64.70
6841;DHT22;3458;53.678;14.080;2022-09-02T13:39:56;23.40;65.90
6841;DHT22;3458;53.678;14.080;2022-09-02T13:42:27;23.30;67.00
6841;DHT22;3458;53.678;14.080;2022-09-02T13:45:10;23.30;66.70
6841;DHT22;3458;53.678;14.080;2022-09-02T13:47:36;23.30;66.20
6841;DHT22;3458;53.678;14.080;2022-09-02T13:50:06;23.20;65.60
6841;DHT22;3458;53.678;14.080;2022-09-02T13:52:31;23.00;65.50
6841;DHT22;3458;53.678;14.080;2022-09-02T13:55:00;22.70;64.60
6841;DHT22;3458;53.678;14.080;2022-09-02T13:57:28;22.70;64.70
6841;DHT22;3458;53.678;14.080;2022-09-02T13:59:55;22.70;66.20
6841;DHT22;3458;53.678;14.080;2022-09-02T14:02:31;22.70;68.10
6841;DHT22;3458;53.678;14.080;2022-09-02T14:05:26;22.50;69.60
6841;DHT22;3458;53.678;14.080;2022-09-02T14:07:57;22.30;70.60
6841;DHT22;3458;53.678;14.080;2022-09-02T14:10:25;22.10;72.10
6841;DHT22;3458;53.678;14.080;2022-09-02T14:12:53;22.00;72.20
6841;DHT22;3458;53.678;14.080;2022-09-02T14:15:28;22.00;69.70
6841;DHT22;3458;53.678;14.080;2022-09-02T14:20:31;23.00;70.80
6841;DHT22;3458;53.678;14.080;2022-09-02T14:22:58;24.20;71.40
6841;DHT22;3458;53.678;14.080;2022-09-02T14:25:26;25.40;67.40
6841;DHT22;3458;53.678;14.080;2022-09-02T14:27:54;26.60;64.40
6841;DHT22;3458;53.678;14.080;2022-09-02T14:33:35;27.50;58.60
6841;DHT22;3458;53.678;14.080;2022-09-02T14:46:26;26.40;61.00
6841;DHT22;3458;53.678;14.080;2022-09-02T14:48:59;27.40;58.70
6841;DHT22;3458;53.678;14.080;2022-09-02T14:51:36;28.10;57.00
6841;DHT22;3458;53.678;14.080;2022-09-02T14:54:03;28.80;56.20
6841;DHT22;3458;53.678;14.080;2022-09-02T14:56:51;28.60;56.00
6841;DHT22;3458;53.678;14.080;2022-09-02T14:59:18;29.30;55.70
6841;DHT22;3458;53.678;14.080;2022-09-02T15:01:49;30.10;53.80
6841;DHT22;3458;53.678;14.080;2022-09-02T15:04:18;30.70;52.20
6841;DHT22;3458;53.678;14.080;2022-09-02T15:06:44;31.40;51.20
6841;DHT22;3458;53.678;14.080;2022-09-02T15:09:11;32.00;50.10
6841;DHT22;3458;53.678;14.080;2022-09-02T15:11:39;32.10;48.20
6841;DHT22;3458;53.678;14.080;2022-09-02T15:14:05;30.90;46.80
6841;DHT22;3458;53.678;14.080;2022-09-02T15:16:31;29.40;48.30
6841;DHT22;3458;53.678;14.080;2022-09-02T15:18:57;27.90;49.30
6841;DHT22;3458;53.678;14.080;2022-09-02T15:21:22;26.70;51.30
6841;DHT22;3458;53.678;14.080;2022-09-02T15:23:48;25.80;53.60
6841;DHT22;3458;53.678;14.080;2022-09-02T15:26:15;25.20;56.00
6841;DHT22;3458;53.678;14.080;2022-09-02T15:28:41;24.70;56.70
6841;DHT22;3458;53.678;14.080;2022-09-02T15:31:08;24.20;57.10
6841;DHT22;3458;53.678;14.080;2022-09-02T15:33:34;23.80;57.80
6841;DHT22;3458;53.678;14.080;2022-09-02T15:36:10;23.50;58.90
6841;DHT22;3458;53.678;14.080;2022-09-02T15:38:36;23.20;59.90
6841;DHT22;3458;53.678;14.080;2022-09-02T15:41:16;22.90;60.60
6841;DHT22;3458;53.678;14.080;2022-09-02T15:43:42;22.70;61.80
6841;DHT22;3458;53.678;14.080;2022-09-02T15:46:25;22.30;61.50
6841;DHT22;3458;53.678;14.080;2022-09-02T15:48:51;22.10;62.60
6841;DHT22;3458;53.678;14.080;2022-09-02T15:51:19;21.90;63.60
6841;DHT22;3458;53.678;14.080;2022-09-02T15:53:45;21.70;64.60
6841;DHT22;3458;53.678;14.080;2022-09-02T15:56:18;21.60;65.70
6841;DHT22;3458;53.678;14.080;2022-09-02T15:58:45;21.80;65.80
6841;DHT22;3458;53.678;14.080;2022-09-02T16:01:10;21.90;65.70
6841;DHT22;3458;53.678;14.080;2022-09-02T16:03:36;21.90;65.60
6841;DHT22;3458;53.678;14.080;2022-09-02T16:06:03;21.80;65.80
6841;DHT22;3458;53.678;14.080;2022-09-02T16:08:28;21.70;65.90
6841;DHT22;3458;53.678;14.080;2022-09-02T16:10:54;21.60;66.20
6841;DHT22;3458;53.678;14.080;2022-09-02T16:13:19;21.70;67.00
6841;DHT22;3458;53.678;14.080;2022-09-02T16:15:46;21.70;67.80
6841;DHT22;3458;53.678;14.080;2022-09-02T16:18:12;21.70;67.50
6841;DHT22;3458;53.678;14.080;2022-09-02T16:20:37;21.80;67.70
6841;DHT22;3458;53.678;14.080;2022-09-02T16:23:03;21.70;67.00
6841;DHT22;3458;53.678;14.080;2022-09-02T16:25:28;21.60;65.90
6841;DHT22;3458;53.678;14.080;2022-09-02T16:27:54;21.60;66.60
6841;DHT22;3458;53.678;14.080;2022-09-02T16:30:21;21.50;67.00
6841;DHT22;3458;53.678;14.080;2022-09-02T16:32:47;21.50;67.00
6841;DHT22;3458;53.678;14.080;2022-09-02T16:35:15;21.30;67.20
6841;DHT22;3458;53.678;14.080;2022-09-02T16:37:40;21.30;66.70
6841;DHT22;3458;53.678;14.080;2022-09-02T16:40:06;21.20;66.80
6841;DHT22;3458;53.678;14.080;2022-09-02T16:42:32;21.10;67.10
6841;DHT22;3458;53.678;14.080;2022-09-02T16:44:57;21.00;67.50
6841;DHT22;3458;53.678;14.080;2022-09-02T16:47:23;21.00;68.40
6841;DHT22;3458;53.678;14.080;2022-09-02T16:49:49;20.90;69.00
6841;DHT22;3458;53.678;14.080;2022-09-02T16:52:14;20.90;69.70
6841;DHT22;3458;53.678;14.080;2022-09-02T16:54:40;20.90;70.00
6841;DHT22;3458;53.678;14.080;2022-09-02T16:57:05;20.80;70.00
6841;DHT22;3458;53.678;14.080;2022-09-02T16:59:31;20.70;70.50
6841;DHT22;3458;53.678;14.080;2022-09-02T17:01:57;20.60;70.60
6841;DHT22;3458;53.678;14.080;2022-09-02T17:04:23;20.60;71.50
6841;DHT22;3458;53.678;14.080;2022-09-02T17:06:49;20.50;71.70
6841;DHT22;3458;53.678;14.080;2022-09-02T17:09:14;20.60;71.90
6841;DHT22;3458;53.678;14.080;2022-09-02T17:11:41;20.60;72.10
6841;DHT22;3458;53.678;14.080;2022-09-02T17:14:14;20.60;72.30
6841;DHT22;3458;53.678;14.080;2022-09-02T17:16:41;20.50;72.20
6841;DHT22;3458;53.678;14.080;2022-09-02T17:19:08;20.50;72.40
6841;DHT22;3458;53.678;14.080;2022-09-02T17:21:35;20.40;72.80
6841;DHT22;3458;53.678;14.080;2022-09-02T17:24:03;20.40;73.30
6841;DHT22;3458;53.678;14.080;2022-09-02T17:26:31;20.40;73.50
6841;DHT22;3458;53.678;14.080;2022-09-02T17:28:57;20.30;74.00
6841;DHT22;3458;53.678;14.080;2022-09-02T17:31:29;20.30;74.00
6841;DHT22;3458;53.678;14.080;2022-09-02T17:33:57;20.20;73.50
6841;DHT22;3458;53.678;14.080;2022-09-02T17:36:24;20.20;74.70
6841;DHT22;3458;53.678;14.080;2022-09-02T17:39:00;20.10;73.70